sensor_id;sensor_type;location;lat;lon;timestamp;pressure;altitude;pressure_sealevel;temperature;humidity
71996;BME280;59862;47.732;7.346;2023-02-04T00:00:13;99694.51;;;5.24;80.77
71996;BME280;59862;47.732;7.346;2023-02-04T00:02:41;99701.72;;;5.22;80.76
71996;BME280;59862;47.732;7.346;2023-02-04T00:05:10;99704.50;;;5.20;80.82
71996;BME280;59862;47.732;7.346;2023-02-04T00:07:38;99706.57;;;5.22;80.97
71996;BME280;59862;47.732;7.346;2023-02-04T00:10:07;99710.63;;;5.28;80.97
71996;BME280;59862;47.732;7.346;2023-02-04T00:12:35;99703.85;;;5.29;80.92
71996;BME280;59862;47.732;7.346;2023-02-04T00:15:03;99704.71;;;5.30;80.90
71996;BME280;59862;47.732;7.346;2023-02-04T00:17:31;99705.80;;;5.33;80.84
71996;BME280;59862;47.732;7.346;2023-02-04T00:19:58;99704.80;;;5.28;80.97
71996;BME280;59862;47.732;7.346;2023-02-04T00:22:26;99707.58;;;5.27;81.14
71996;BME280;59862;47.732;7.346;2023-02-04T00:24:54;99704.17;;;5.25;81.46
71996;BME280;59862;47.732;7.346;2023-02-04T00:27:21;99705.03;;;5.25;81.66
71996;BME280;59862;47.732;7.346;2023-02-04T00:29:49;99706.84;;;5.25;81.89
71996;BME280;59862;47.732;7.346;2023-02-04T00:32:16;99706.69;;;5.21;82.31
71996;BME280;59862;47.732;7.346;2023-02-04T00:34:44;99707.87;;;5.17;82.67
71996;BME280;59862;47.732;7.346;2023-02-04T00:37:11;99708.02;;;5.21;82.92
71996;BME280;59862;47.732;7.346;2023-02-04T00:39:39;99708.29;;;5.23;83.03
71996;BME280;59862;47.732;7.346;2023-02-04T00:42:06;99709.67;;;5.16;83.36
71996;BME280;59862;47.732;7.346;2023-02-04T00:44:34;99709.20;;;5.17;83.75
71996;BME280;59862;47.732;7.346;2023-02-04T00:47:02;99701.33;;;5.15;84.00
71996;BME280;59862;47.732;7.346;2023-02-04T00:49:30;99710.64;;;5.15;84.14
71996;BME280;59862;47.732;7.346;2023-02-04T00:51:57;99716.64;;;5.12;84.43
71996;BME280;59862;47.732;7.346;2023-02-04T00:54:25;99722.39;;;5.18;84.55
71996;BME280;59862;47.732;7.346;2023-02-04T00:56:53;99723.45;;;5.16;84.73
71996;BME280;59862;47.732;7.346;2023-02-04T00:59:20;99718.83;;;5.12;85.05
71996;BME280;59862;47.732;7.346;2023-02-04T01:01:47;99700.33;;;5.11;85.31
71996;BME280;59862;47.732;7.346;2023-02-04T01:04:17;99698.25;;;5.09;85.52
71996;BME280;59862;47.732;7.346;2023-02-04T01:06:44;99699.08;;;5.09;85.64
71996;BME280;59862;47.732;7.346;2023-02-04T01:09:12;99700.14;;;5.07;85.74
71996;BME280;59862;47.732;7.346;2023-02-04T01:11:39;99703.19;;;5.08;85.75
71996;BME280;59862;47.732;7.346;2023-02-04T01:14:07;99699.94;;;5.10;85.90
71996;BME280;59862;47.732;7.346;2023-02-04T01:16:34;99708.66;;;5.12;85.88
71996;BME280;59862;47.732;7.346;2023-02-04T01:19:02;99709.09;;;5.06;86.17
71996;BME280;59862;47.732;7.346;2023-02-04T01:21:29;99715.16;;;5.08;86.29
71996;BME280;59862;47.732;7.346;2023-02-04T01:23:57;99722.24;;;5.02;86.50
71996;BME280;59862;47.732;7.346;2023-02-04T01:26:24;99725.10;;;4.99;86.71
71996;BME280;59862;47.732;7.346;2023-02-04T01:28:52;99716.69;;;5.05;86.77
71996;BME280;59862;47.732;7.346;2023-02-04T01:31:19;99720.09;;;5.07;86.74
71996;BME280;59862;47.732;7.346;2023-02-04T01:33:46;99714.89;;;5.05;86.77
71996;BME280;59862;47.732;7.346;2023-02-04T01:36:14;99713.95;;;5.06;86.82
71996;BME280;59862;47.732;7.346;2023-02-04T01:38:43;99709.45;;;5.07;86.86
71996;BME280;59862;47.732;7.346;2023-02-04T01:41:11;99719.53;;;5.09;86.88
71996;BME280;59862;47.732;7.346;2023-02-04T01:43:38;99713.56;;;5.05;86.96
71996;BME280;59862;47.732;7.346;2023-02-04T01:46:06;99709.09;;;5.06;87.08
71996;BME280;59862;47.732;7.346;2023-02-04T01:48:33;99716.34;;;5.04;87.12
71996;BME280;59862;47.732;7.346;2023-02-04T01:51:04;99704.21;;;5.00;87.38
71996;BME280;59862;47.732;7.346;2023-02-04T01:53:33;99702.30;;;5.02;87.45
71996;BME280;59862;47.732;7.346;2023-02-04T01:56:01;99709.53;;;5.00;87.48
71996;BME280;59862;47.732;7.346;2023-02-04T01:58:31;99697.17;;;4.99;87.57
71996;BME280;59862;47.732;7.346;2023-02-04T02:00:59;99689.84;;;5.02;87.57
71996;BME280;59862;47.732;7.346;2023-02-04T02:03:27;99692.59;;;5.01;87.58
71996;BME280;59862;47.732;7.346;2023-02-04T02:05:55;99696.38;;;5.04;87.52
71996;BME280;59862;47.732;7.346;2023-02-04T02:08:22;99692.00;;;5.03;87.53
71996;BME280;59862;47.732;7.346;2023-02-04T02:10:50;99680.86;;;4.98;87.64
71996;BME280;59862;47.732;7.346;2023-02-04T02:13:19;99677.61;;;5.00;87.64
71996;BME280;59862;47.732;7.346;2023-02-04T02:15:46;99675.89;;;4.99;87.50
71996;BME280;59862;47.732;7.346;2023-02-04T02:18:15;99667.80;;;5.00;87.56
71996;BME280;59862;47.732;7.346;2023-02-04T02:20:43;99667.13;;;5.04;87.51
71996;BME280;59862;47.732;7.346;2023-02-04T02:26:06;99661.27;;;4.99;87.58
71996;BME280;59862;47.732;7.346;2023-02-04T02:28:34;99662.59;;;4.99;87.61
71996;BME280;59862;47.732;7.346;2023-02-04T02:31:01;99654.61;;;4.99;87.55
71996;BME280;59862;47.732;7.346;2023-02-04T02:33:29;99651.48;;;4.99;87.59
71996;BME280;59862;47.732;7.346;2023-02-04T02:35:57;99653.55;;;5.01;87.61
71996;BME280;59862;47.732;7.346;2023-02-04T02:38:25;99647.02;;;5.00;87.65
71996;BME280;59862;47.732;7.346;2023-02-04T02:40:53;99644.36;;;5.00;87.68
71996;BME280;59862;47.732;7.346;2023-02-04T02:43:22;99653.16;;;5.00;87.67
71996;BME280;59862;47.732;7.346;2023-02-04T02:45:52;99659.14;;;5.04;87.64
71996;BME280;59862;47.732;7.346;2023-02-04T02:48:21;99653.23;;;5.06;87.53
71996;BME280;59862;47.732;7.346;2023-02-04T02:50:48;99647.91;;;5.06;87.38
71996;BME280;59862;47.732;7.346;2023-02-04T02:53:18;99648.70;;;5.01;87.41
71996;BME280;59862;47.732;7.346;2023-02-04T02:55:47;99651.75;;;5.02;87.54
71996;BME280;59862;47.732;7.346;2023-02-04T02:58:31;99658.13;;;4.99;87.55
71996;BME280;59862;47.732;7.346;2023-02-04T03:01:02;99664.52;;;4.97;87.67
71996;BME280;59862;47.732;7.346;2023-02-04T03:03:32;99662.86;;;5.01;87.69
71996;BME280;59862;47.732;7.346;2023-02-04T03:06:18;99668.89;;;4.98;87.68
71996;BME280;59862;47.732;7.346;2023-02-04T03:08:51;99666.11;;;4.99;87.71
71996;BME280;59862;47.732;7.346;2023-02-04T03:11:15;99657.86;;;4.97;87.71
71996;BME280;59862;47.732;7.346;2023-02-04T03:13:43;99663.45;;;4.99;87.76
71996;BME280;59862;47.732;7.346;2023-02-04T03:16:11;99650.74;;;4.97;87.83
71996;BME280;59862;47.732;7.346;2023-02-04T03:18:39;99657.86;;;4.97;87.74
71996;BME280;59862;47.732;7.346;2023-02-04T03:21:07;99657.74;;;4.98;87.73
71996;BME280;59862;47.732;7.346;2023-02-04T03:23:35;99655.83;;;5.00;87.73
71996;BME280;59862;47.732;7.346;2023-02-04T03:26:04;99667.05;;;4.98;87.75
71996;BME280;59862;47.732;7.346;2023-02-04T03:28:32;99666.97;;;5.00;87.70
71996;BME280;59862;47.732;7.346;2023-02-04T03:31:00;99668.38;;;4.98;87.74
71996;BME280;59862;47.732;7.346;2023-02-04T03:33:28;99672.91;;;5.03;87.74
71996;BME280;59862;47.732;7.346;2023-02-04T03:36:00;99673.38;;;5.03;87.70
71996;BME280;59862;47.732;7.346;2023-02-04T03:38:28;99669.78;;;5.04;87.64
71996;BME280;59862;47.732;7.346;2023-02-04T03:40:55;99660.67;;;5.01;87.69
71996;BME280;59862;47.732;7.346;2023-02-04T03:43:22;99659.94;;;4.99;87.79
71996;BME280;59862;47.732;7.346;2023-02-04T03:45:50;99662.12;;;4.99;87.81
71996;BME280;59862;47.732;7.346;2023-02-04T03:48:17;99673.03;;;5.02;87.83
71996;BME280;59862;47.732;7.346;2023-02-04T03:50:45;99665.52;;;5.01;87.88
71996;BME280;59862;47.732;7.346;2023-02-04T03:53:12;99666.47;;;5.00;87.85
71996;BME280;59862;47.732;7.346;2023-02-04T03:55:40;99669.09;;;4.95;88.01
71996;BME280;59862;47.732;7.346;2023-02-04T03:58:07;99667.56;;;4.98;88.04
71996;BME280;59862;47.732;7.346;2023-02-04T04:00:35;99664.52;;;4.97;88.09
71996;BME280;59862;47.732;7.346;2023-02-04T04:03:02;99666.58;;;4.99;88.16
71996;BME280;59862;47.732;7.346;2023-02-04T04:05:30;99667.56;;;4.98;88.15
71996;BME280;59862;47.732;7.346;2023-02-04T04:07:58;99660.52;;;4.97;88.21
71996;BME280;59862;47.732;7.346;2023-02-04T04:10:25;99661.31;;;4.92;88.37
71996;BME280;59862;47.732;7.346;2023-02-04T04:12:54;99664.83;;;4.92;88.42
71996;BME280;59862;47.732;7.346;2023-02-04T04:15:24;99657.39;;;4.97;88.42
71996;BME280;59862;47.732;7.346;2023-02-04T04:17:51;99661.11;;;4.95;88.53
71996;BME280;59862;47.732;7.346;2023-02-04T04:20:19;99668.23;;;4.94;88.60
71996;BME280;59862;47.732;7.346;2023-02-04T04:22:48;99667.02;;;4.93;88.74
71996;BME280;59862;47.732;7.346;2023-02-04T04:25:15;99675.74;;;4.95;88.77
71996;BME280;59862;47.732;7.346;2023-02-04T04:27:42;99661.70;;;4.93;88.76
71996;BME280;59862;47.732;7.346;2023-02-04T04:30:10;99660.64;;;4.95;88.78
71996;BME280;59862;47.732;7.346;2023-02-04T04:32:38;99664.72;;;4.94;88.77
71996;BME280;59862;47.732;7.346;2023-02-04T04:35:06;99665.84;;;4.97;88.85
71996;BME280;59862;47.732;7.346;2023-02-04T04:37:33;99666.44;;;4.95;88.85
71996;BME280;59862;47.732;7.346;2023-02-04T04:40:00;99670.03;;;4.94;88.98
71996;BME280;59862;47.732;7.346;2023-02-04T04:42:28;99663.57;;;4.98;89.01
71996;BME280;59862;47.732;7.346;2023-02-04T04:44:55;99667.38;;;4.94;89.09
71996;BME280;59862;47.732;7.346;2023-02-04T04:47:23;99666.75;;;4.90;89.17
71996;BME280;59862;47.732;7.346;2023-02-04T04:49:50;99668.94;;;4.91;89.28
71996;BME280;59862;47.732;7.346;2023-02-04T04:52:18;99665.69;;;4.93;89.36
71996;BME280;59862;47.732;7.346;2023-02-04T04:54:45;99668.70;;;4.94;89.37
71996;BME280;59862;47.732;7.346;2023-02-04T04:57:12;99664.36;;;4.93;89.35
71996;BME280;59862;47.732;7.346;2023-02-04T04:59:40;99663.97;;;4.92;89.37
71996;BME280;59862;47.732;7.346;2023-02-04T05:02:07;99655.80;;;4.95;89.41
71996;BME280;59862;47.732;7.346;2023-02-04T05:04:35;99669.29;;;4.92;89.44
71996;BME280;59862;47.732;7.346;2023-02-04T05:07:02;99669.95;;;4.95;89.47
71996;BME280;59862;47.732;7.346;2023-02-04T05:09:29;99661.50;;;4.96;89.48
71996;BME280;59862;47.732;7.346;2023-02-04T05:11:57;99655.64;;;4.91;89.55
71996;BME280;59862;47.732;7.346;2023-02-04T05:14:24;99657.33;;;4.92;89.67
71996;BME280;59862;47.732;7.346;2023-02-04T05:16:52;99650.09;;;4.94;89.74
71996;BME280;59862;47.732;7.346;2023-02-04T05:19:19;99653.72;;;4.93;89.68
71996;BME280;59862;47.732;7.346;2023-02-04T05:21:47;99661.58;;;4.94;89.71
71996;BME280;59862;47.732;7.346;2023-02-04T05:24:14;99666.82;;;4.96;89.69
71996;BME280;59862;47.732;7.346;2023-02-04T05:26:41;99676.02;;;4.97;89.66
71996;BME280;59862;47.732;7.346;2023-02-04T05:29:09;99675.89;;;4.99;89.62
71996;BME280;59862;47.732;7.346;2023-02-04T05:31:36;99676.88;;;4.98;89.63
71996;BME280;59862;47.732;7.346;2023-02-04T05:34:04;99684.73;;;4.99;89.61
71996;BME280;59862;47.732;7.346;2023-02-04T05:36:31;99682.70;;;5.03;89.64
71996;BME280;59862;47.732;7.346;2023-02-04T05:38:59;99677.38;;;5.03;89.60
71996;BME280;59862;47.732;7.346;2023-02-04T05:41:26;99683.88;;;4.99;89.74
71996;BME280;59862;47.732;7.346;2023-02-04T05:43:53;99678.40;;;4.95;89.88
71996;BME280;59862;47.732;7.346;2023-02-04T05:46:21;99673.20;;;4.93;90.12
71996;BME280;59862;47.732;7.346;2023-02-04T05:48:48;99674.14;;;4.92;90.32
71996;BME280;59862;47.732;7.346;2023-02-04T05:51:16;99672.06;;;4.90;90.47
71996;BME280;59862;47.732;7.346;2023-02-04T05:53:43;99682.59;;;4.92;90.53
71996;BME280;59862;47.732;7.346;2023-02-04T05:56:11;99676.45;;;4.91;90.62
71996;BME280;59862;47.732;7.346;2023-02-04T05:58:38;99677.27;;;4.92;90.69
71996;BME280;59862;47.732;7.346;2023-02-04T06:01:06;99675.20;;;4.90;90.74
71996;BME280;59862;47.732;7.346;2023-02-04T06:03:33;99678.02;;;4.94;90.73
71996;BME280;59862;47.732;7.346;2023-02-04T06:06:01;99668.15;;;4.96;90.68
71996;BME280;59862;47.732;7.346;2023-02-04T06:08:28;99672.87;;;4.98;90.61
71996;BME280;59862;47.732;7.346;2023-02-04T06:10:55;99683.25;;;4.95;90.52
71996;BME280;59862;47.732;7.346;2023-02-04T06:13:23;99680.47;;;4.97;90.46
71996;BME280;59862;47.732;7.346;2023-02-04T06:15:50;99673.23;;;4.99;90.42
71996;BME280;59862;47.732;7.346;2023-02-04T06:18:18;99672.02;;;4.97;90.35
71996;BME280;59862;47.732;7.346;2023-02-04T06:20:45;99676.13;;;4.96;90.35
71996;BME280;59862;47.732;7.346;2023-02-04T06:23:12;99677.66;;;4.93;90.35
71996;BME280;59862;47.732;7.346;2023-02-04T06:25:40;99684.31;;;4.93;90.47
71996;BME280;59862;47.732;7.346;2023-02-04T06:28:07;99678.52;;;4.93;90.51
71996;BME280;59862;47.732;7.346;2023-02-04T06:30:35;99672.22;;;4.94;90.46
71996;BME280;59862;47.732;7.346;2023-02-04T06:33:03;99672.49;;;4.97;90.41
71996;BME280;59862;47.732;7.346;2023-02-04T06:35:30;99678.70;;;5.03;90.30
71996;BME280;59862;47.732;7.346;2023-02-04T06:37:57;99678.23;;;5.03;90.17
71996;BME280;59862;47.732;7.346;2023-02-04T06:40:25;99673.18;;;5.06;90.10
71996;BME280;59862;47.732;7.346;2023-02-04T06:42:52;99672.80;;;5.05;90.08
71996;BME280;59862;47.732;7.346;2023-02-04T06:45:20;99671.27;;;5.08;90.06
71996;BME280;59862;47.732;7.346;2023-02-04T06:47:47;99675.05;;;5.11;90.03
71996;BME280;59862;47.732;7.346;2023-02-04T06:50:15;99671.20;;;5.15;89.88
71996;BME280;59862;47.732;7.346;2023-02-04T06:52:45;99672.80;;;5.17;89.78
71996;BME280;59862;47.732;7.346;2023-02-04T06:55:14;99676.36;;;5.23;89.68
71996;BME280;59862;47.732;7.346;2023-02-04T06:57:42;99677.03;;;5.20;89.59
71996;BME280;59862;47.732;7.346;2023-02-04T07:00:11;99689.66;;;5.23;89.51
71996;BME280;59862;47.732;7.346;2023-02-04T07:02:39;99685.20;;;5.24;89.48
71996;BME280;59862;47.732;7.346;2023-02-04T07:05:08;99684.61;;;5.26;89.35
71996;BME280;59862;47.732;7.346;2023-02-04T07:07:36;99695.61;;;5.27;89.25
71996;BME280;59862;47.732;7.346;2023-02-04T07:10:04;99699.83;;;5.24;89.37
71996;BME280;59862;47.732;7.346;2023-02-04T07:12:31;99698.27;;;5.27;89.40
71996;BME280;59862;47.732;7.346;2023-02-04T07:14:59;99711.09;;;5.27;89.41
71996;BME280;59862;47.732;7.346;2023-02-04T07:17:26;99712.31;;;5.29;89.33
71996;BME280;59862;47.732;7.346;2023-02-04T07:19:53;99718.70;;;5.26;89.36
71996;BME280;59862;47.732;7.346;2023-02-04T07:22:21;99716.03;;;5.26;89.36
71996;BME280;59862;47.732;7.346;2023-02-04T07:24:48;99720.30;;;5.29;89.34
71996;BME280;59862;47.732;7.346;2023-02-04T07:27:16;99714.83;;;5.25;89.42
71996;BME280;59862;47.732;7.346;2023-02-04T07:29:43;99717.63;;;5.29;89.42
71996;BME280;59862;47.732;7.346;2023-02-04T07:32:10;99719.23;;;5.31;89.37
71996;BME280;59862;47.732;7.346;2023-02-04T07:34:38;99716.69;;;5.30;89.33
71996;BME280;59862;47.732;7.346;2023-02-04T07:37:05;99723.23;;;5.31;89.33
71996;BME280;59862;47.732;7.346;2023-02-04T07:39:33;99717.78;;;5.33;89.35
71996;BME280;59862;47.732;7.346;2023-02-04T07:42:00;99739.81;;;5.35;89.29
71996;BME280;59862;47.732;7.346;2023-02-04T07:44:27;99727.16;;;5.38;89.23
71996;BME280;59862;47.732;7.346;2023-02-04T07:46:55;99726.69;;;5.39;89.08
71996;BME280;59862;47.732;7.346;2023-02-04T07:49:23;99722.70;;;5.39;89.04
71996;BME280;59862;47.732;7.346;2023-02-04T07:51:50;99721.52;;;5.43;88.91
71996;BME280;59862;47.732;7.346;2023-02-04T07:54:17;99713.88;;;5.44;88.77
71996;BME280;59862;47.732;7.346;2023-02-04T07:56:45;99715.03;;;5.53;88.62
71996;BME280;59862;47.732;7.346;2023-02-04T07:59:12;99719.68;;;5.56;88.33
71996;BME280;59862;47.732;7.346;2023-02-04T08:01:40;99717.97;;;5.55;88.14
71996;BME280;59862;47.732;7.346;2023-02-04T08:04:07;99726.09;;;5.59;88.12
71996;BME280;59862;47.732;7.346;2023-02-04T08:06:34;99725.50;;;5.61;87.93
71996;BME280;59862;47.732;7.346;2023-02-04T08:09:02;99724.27;;;5.54;87.82
71996;BME280;59862;47.732;7.346;2023-02-04T08:11:29;99719.23;;;5.62;87.85
71996;BME280;59862;47.732;7.346;2023-02-04T08:13:57;99733.16;;;5.66;87.74
71996;BME280;59862;47.732;7.346;2023-02-04T08:16:24;99722.52;;;5.66;87.68
71996;BME280;59862;47.732;7.346;2023-02-04T08:18:52;99725.50;;;5.61;87.74
71996;BME280;59862;47.732;7.346;2023-02-04T08:21:19;99715.00;;;5.65;87.88
71996;BME280;59862;47.732;7.346;2023-02-04T08:23:46;99718.58;;;5.71;87.75
71996;BME280;59862;47.732;7.346;2023-02-04T08:26:14;99720.50;;;5.69;87.58
71996;BME280;59862;47.732;7.346;2023-02-04T08:28:41;99729.44;;;5.68;87.59
71996;BME280;59862;47.732;7.346;2023-02-04T08:31:09;99726.89;;;5.67;87.76
71996;BME280;59862;47.732;7.346;2023-02-04T08:33:38;99734.91;;;5.72;87.77
71996;BME280;59862;47.732;7.346;2023-02-04T08:36:06;99743.08;;;5.64;87.93
71996;BME280;59862;47.732;7.346;2023-02-04T08:38:34;99743.22;;;5.68;87.96
71996;BME280;59862;47.732;7.346;2023-02-04T08:41:01;99742.95;;;5.65;88.12
71996;BME280;59862;47.732;7.346;2023-02-04T08:43:29;99749.55;;;5.72;88.00
71996;BME280;59862;47.732;7.346;2023-02-04T08:45:56;99749.34;;;5.75;87.87
71996;BME280;59862;47.732;7.346;2023-02-04T08:48:23;99751.30;;;5.79;87.75
71996;BME280;59862;47.732;7.346;2023-02-04T08:50:51;99749.94;;;5.73;87.88
71996;BME280;59862;47.732;7.346;2023-02-04T08:53:18;99746.03;;;5.72;87.97
71996;BME280;59862;47.732;7.346;2023-02-04T08:55:46;99746.05;;;5.84;87.86
71996;BME280;59862;47.732;7.346;2023-02-04T08:58:13;99747.63;;;5.87;87.59
71996;BME280;59862;47.732;7.346;2023-02-04T09:00:40;99756.26;;;5.90;87.55
71996;BME280;59862;47.732;7.346;2023-02-04T09:03:08;99743.02;;;6.01;87.32
71996;BME280;59862;47.732;7.346;2023-02-04T09:05:35;99747.50;;;6.06;86.85
71996;BME280;59862;47.732;7.346;2023-02-04T09:08:03;99756.55;;;6.17;86.64
71996;BME280;59862;47.732;7.346;2023-02-04T09:10:30;99747.77;;;6.09;86.66
71996;BME280;59862;47.732;7.346;2023-02-04T09:12:58;99759.16;;;6.11;86.67
71996;BME280;59862;47.732;7.346;2023-02-04T09:15:25;99772.27;;;6.14;86.51
71996;BME280;59862;47.732;7.346;2023-02-04T09:17:53;99762.20;;;6.12;86.46
71996;BME280;59862;47.732;7.346;2023-02-04T09:20:22;99772.39;;;6.13;86.51
71996;BME280;59862;47.732;7.346;2023-02-04T09:22:49;99770.16;;;6.06;86.47
71996;BME280;59862;47.732;7.346;2023-02-04T09:25:17;99769.94;;;6.09;86.56
71996;BME280;59862;47.732;7.346;2023-02-04T09:27:44;99772.75;;;6.13;86.58
71996;BME280;59862;47.732;7.346;2023-02-04T09:30:12;99771.46;;;6.19;86.57
71996;BME280;59862;47.732;7.346;2023-02-04T09:32:39;99776.88;;;6.18;86.48
71996;BME280;59862;47.732;7.346;2023-02-04T09:35:07;99781.93;;;6.28;86.29
71996;BME280;59862;47.732;7.346;2023-02-04T09:37:34;99782.20;;;6.36;85.94
71996;BME280;59862;47.732;7.346;2023-02-04T09:40:02;99776.93;;;6.47;85.68
71996;BME280;59862;47.732;7.346;2023-02-04T09:42:30;99783.87;;;6.55;85.20
71996;BME280;59862;47.732;7.346;2023-02-04T09:44:57;99781.63;;;6.67;84.77
71996;BME280;59862;47.732;7.346;2023-02-04T09:47:26;99793.98;;;6.68;84.58
71996;BME280;59862;47.732;7.346;2023-02-04T09:49:54;99797.03;;;6.69;84.52
71996;BME280;59862;47.732;7.346;2023-02-04T09:52:21;99807.80;;;6.67;84.63
71996;BME280;59862;47.732;7.346;2023-02-04T09:54:50;99815.11;;;6.71;84.34
71996;BME280;59862;47.732;7.346;2023-02-04T09:57:19;99826.73;;;6.70;84.32
71996;BME280;59862;47.732;7.346;2023-02-04T09:59:46;99821.78;;;6.71;84.36
71996;BME280;59862;47.732;7.346;2023-02-04T10:02:26;99817.99;;;6.68;84.41
71996;BME280;59862;47.732;7.346;2023-02-04T10:04:55;99816.58;;;6.75;84.37
71996;BME280;59862;47.732;7.346;2023-02-04T10:07:24;99829.84;;;6.87;84.22
71996;BME280;59862;47.732;7.346;2023-02-04T10:09:53;99827.44;;;6.96;83.99
71996;BME280;59862;47.732;7.346;2023-02-04T10:12:21;99833.50;;;6.92;83.95
71996;BME280;59862;47.732;7.346;2023-02-04T10:14:49;99829.62;;;6.96;84.30
71996;BME280;59862;47.732;7.346;2023-02-04T10:17:21;99839.52;;;7.12;84.50
71996;BME280;59862;47.732;7.346;2023-02-04T10:19:49;99837.20;;;7.13;84.48
71996;BME280;59862;47.732;7.346;2023-02-04T10:22:18;99844.70;;;7.08;84.80
71996;BME280;59862;47.732;7.346;2023-02-04T10:24:47;99848.61;;;7.15;85.01
71996;BME280;59862;47.732;7.346;2023-02-04T10:27:15;99851.02;;;7.13;85.28
71996;BME280;59862;47.732;7.346;2023-02-04T10:29:53;99852.52;;;7.22;85.53
71996;BME280;59862;47.732;7.346;2023-02-04T10:32:27;99850.84;;;7.32;85.68
71996;BME280;59862;47.732;7.346;2023-02-04T10:35:00;99856.91;;;7.34;85.76
71996;BME280;59862;47.732;7.346;2023-02-04T10:37:28;99845.46;;;7.10;85.99
71996;BME280;59862;47.732;7.346;2023-02-04T10:39:57;99849.94;;;7.10;86.43
71996;BME280;59862;47.732;7.346;2023-02-04T10:42:27;99847.63;;;7.11;86.71
71996;BME280;59862;47.732;7.346;2023-02-04T10:44:55;99844.70;;;7.08;86.98
71996;BME280;59862;47.732;7.346;2023-02-04T10:47:25;99842.63;;;7.06;87.06
71996;BME280;59862;47.732;7.346;2023-02-04T10:52:32;99848.39;;;6.89;87.27
71996;BME280;59862;47.732;7.346;2023-02-04T10:54:57;99854.80;;;6.81;87.68
71996;BME280;59862;47.732;7.346;2023-02-04T10:57:27;99850.14;;;6.72;88.11
71996;BME280;59862;47.732;7.346;2023-02-04T10:59:57;99854.98;;;6.67;88.29
71996;BME280;59862;47.732;7.346;2023-02-04T11:02:44;99852.73;;;6.55;88.54
71996;BME280;59862;47.732;7.346;2023-02-04T11:05:17;99850.39;;;6.51;88.90
71996;BME280;59862;47.732;7.346;2023-02-04T11:07:46;99851.20;;;6.46;89.23
71996;BME280;59862;47.732;7.346;2023-02-04T11:10:20;99854.39;;;6.51;89.48
71996;BME280;59862;47.732;7.346;2023-02-04T11:20:58;99853.20;;;6.55;89.74
71996;BME280;59862;47.732;7.346;2023-02-04T11:26:06;99847.39;;;6.79;89.79
71996;BME280;59862;47.732;7.346;2023-02-04T11:29:07;99847.36;;;6.97;89.48
71996;BME280;59862;47.732;7.346;2023-02-04T11:39:43;99848.48;;;7.11;87.89
71996;BME280;59862;47.732;7.346;2023-02-04T11:42:16;99843.96;;;7.06;87.90
71996;BME280;59862;47.732;7.346;2023-02-04T11:44:59;99845.03;;;6.98;87.79
71996;BME280;59862;47.732;7.346;2023-02-04T11:47:32;99850.42;;;7.09;87.76
71996;BME280;59862;47.732;7.346;2023-02-04T11:49:58;99852.30;;;6.91;87.54
71996;BME280;59862;47.732;7.346;2023-02-04T11:52:27;99848.00;;;7.17;87.55
71996;BME280;59862;47.732;7.346;2023-02-04T11:54:57;99854.59;;;7.30;87.27
71996;BME280;59862;47.732;7.346;2023-02-04T11:57:25;99851.22;;;7.39;86.77
71996;BME280;59862;47.732;7.346;2023-02-04T11:59:53;99853.66;;;7.47;86.43
71996;BME280;59862;47.732;7.346;2023-02-04T12:02:24;99855.63;;;7.56;86.17
71996;BME280;59862;47.732;7.346;2023-02-04T12:05:11;99858.06;;;7.59;85.64
71996;BME280;59862;47.732;7.346;2023-02-04T12:07:29;99855.40;;;7.59;84.92
71996;BME280;59862;47.732;7.346;2023-02-04T12:09:57;99856.98;;;7.68;84.72
71996;BME280;59862;47.732;7.346;2023-02-04T12:12:27;99859.77;;;7.72;84.66
71996;BME280;59862;47.732;7.346;2023-02-04T12:15:07;99862.33;;;7.79;84.31
71996;BME280;59862;47.732;7.346;2023-02-04T12:17:31;99866.21;;;7.80;84.23
71996;BME280;59862;47.732;7.346;2023-02-04T12:19:58;99863.78;;;7.72;84.44
71996;BME280;59862;47.732;7.346;2023-02-04T12:22:26;99860.77;;;7.82;84.36
71996;BME280;59862;47.732;7.346;2023-02-04T12:24:53;99857.58;;;7.71;83.75
71996;BME280;59862;47.732;7.346;2023-02-04T12:27:20;99852.74;;;7.71;83.50
71996;BME280;59862;47.732;7.346;2023-02-04T12:29:48;99855.64;;;7.68;83.49
71996;BME280;59862;47.732;7.346;2023-02-04T12:32:15;99856.14;;;7.73;83.12
71996;BME280;59862;47.732;7.346;2023-02-04T12:34:43;99853.36;;;7.96;82.64
71996;BME280;59862;47.732;7.346;2023-02-04T12:37:10;99852.23;;;8.21;82.16
71996;BME280;59862;47.732;7.346;2023-02-04T12:39:37;99849.32;;;8.46;80.68
71996;BME280;59862;47.732;7.346;2023-02-04T12:42:05;99849.32;;;8.46;80.68
71996;BME280;59862;47.732;7.346;2023-02-04T12:44:32;99855.44;;;8.31;78.93
71996;BME280;59862;47.732;7.346;2023-02-04T12:47:00;99848.33;;;8.47;79.27
71996;BME280;59862;47.732;7.346;2023-02-04T12:49:28;99843.20;;;8.66;78.91
71996;BME280;59862;47.732;7.346;2023-02-04T12:51:55;99839.02;;;8.79;77.64
71996;BME280;59862;47.732;7.346;2023-02-04T12:54:24;99830.94;;;8.47;77.13
71996;BME280;59862;47.732;7.346;2023-02-04T12:56:52;99836.27;;;8.58;77.97
71996;BME280;59862;47.732;7.346;2023-02-04T12:59:21;99839.19;;;8.66;76.75
71996;BME280;59862;47.732;7.346;2023-02-04T13:01:48;99839.02;;;8.73;76.08
71996;BME280;59862;47.732;7.346;2023-02-04T13:04:15;99828.55;;;8.81;75.69
71996;BME280;59862;47.732;7.346;2023-02-04T13:06:43;99836.88;;;8.93;75.83
71996;BME280;59862;47.732;7.346;2023-02-04T13:09:10;99839.49;;;8.78;74.50
71996;BME280;59862;47.732;7.346;2023-02-04T13:11:38;99784.67;;;8.93;74.47
71996;BME280;59862;47.732;7.346;2023-02-04T13:14:05;99837.34;;;9.25;74.63
71996;BME280;59862;47.732;7.346;2023-02-04T13:16:32;99841.97;;;9.43;72.97
71996;BME280;59862;47.732;7.346;2023-02-04T13:19:00;99838.36;;;9.74;71.45
71996;BME280;59862;47.732;7.346;2023-02-04T13:21:27;99836.06;;;9.55;70.48
71996;BME280;59862;47.732;7.346;2023-02-04T13:23:56;99844.23;;;9.68;70.41
71996;BME280;59862;47.732;7.346;2023-02-04T13:26:25;99823.68;;;9.07;71.63
71996;BME280;59862;47.732;7.346;2023-02-04T13:28:52;99823.68;;;9.07;71.63
71996;BME280;59862;47.732;7.346;2023-02-04T13:31:20;99833.77;;;9.09;72.21
71996;BME280;59862;47.732;7.346;2023-02-04T13:33:47;99833.01;;;9.12;72.90
71996;BME280;59862;47.732;7.346;2023-02-04T13:36:14;99834.06;;;8.58;72.50
71996;BME280;59862;47.732;7.346;2023-02-04T13:38:42;99834.69;;;8.56;73.52